This is the latest recevied weather packets stored in our database for station/object KF6ILA. If no packets are shown the sender has not sent any weather packets the latest 10 day(s).
| Time | Temp. | Humidity | Pressure | Rain* | Wind** | Luminosity | Snow |
|---|---|---|---|---|---|---|---|
| 1787850397 | 32.22° C | 29% | 1018.3 hPa | 0 mm | - | 288 W/m² | - |
| 1787849802 | 31.67° C | 29% | 1018.3 hPa | 0 mm | - | 381 W/m² | - |
| 1787848614 | 31.67° C | 29% | 1018.2 hPa | 0 mm | - | 383 W/m² | - |
| 1787848317 | 31.67° C | 29% | 1018.3 hPa | 0 mm | - | 294 W/m² | - |
| 1787847129 | 32.22° C | 29% | 1018.3 hPa | 0 mm | - | 654 W/m² | - |
| 1787846832 | 32.22° C | 29% | 1018.2 hPa | 0 mm | - | 710 W/m² | - |
| 1787846535 | 31.67° C | 30% | 1018.3 hPa | 0 mm | - | 575 W/m² | - |
| 1787846238 | 31.67° C | 29% | 1018.4 hPa | 0 mm | - | 336 W/m² | - |
| 1787845347 | 32.22° C | 29% | 1018.3 hPa | 0 mm | - | 232 W/m² | - |
| 1787845050 | 32.22° C | 28% | 1018.3 hPa | 0 mm | - | 186 W/m² | - |
| 1787844753 | 32.78° C | 27% | 1018.4 hPa | 0 mm | - | 183 W/m² | - |
| 1787844159 | 32.78° C | 27% | 1018.3 hPa | 0 mm | - | 369 W/m² | - |
| 1787843565 | 32.22° C | 30% | 1018.3 hPa | 0 mm | - | 397 W/m² | - |
| 1787843268 | 31.67° C | 28% | 1018.4 hPa | 0 mm | - | 318 W/m² | - |
| 1787841783 | 30° C | 32% | 1017.5 hPa | 0 mm | - | 378 W/m² | - |
| 1787841486 | 29.44° C | 31% | 1017.5 hPa | 0 mm | - | 343 W/m² | - |
| 1787840892 | 28.33° C | 32% | 1017.6 hPa | 0 mm | - | 271 W/m² | - |
| 1787840595 | 27.78° C | 34% | 1017.4 hPa | 0 mm | - | 243 W/m² | - |
| 1787840298 | 27.22° C | 35% | 1017.4 hPa | 0 mm | - | 206 W/m² | - |
| 1787840001 | 26.67° C | 34% | 1017.4 hPa | 0 mm | - | 151 W/m² | - |
| 1787839704 | 26.67° C | 34% | 1017.4 hPa | 0 mm | - | 149 W/m² | - |
| 1787839110 | 26.67° C | 34% | 1017.2 hPa | 0 mm | - | 58 W/m² | - |
| 1787838219 | 26.67° C | 34% | 1017 hPa | 0 mm | - | 42 W/m² | - |
| 1787837922 | 26.67° C | 33% | 1017 hPa | 0 mm | - | 26 W/m² | - |
| 1787837328 | 26.67° C | 33% | 1016.9 hPa | 0 mm | - | 12 W/m² | - |
* Rain latest hour (hover to see other rain measurements)
** Current wind speed in m/s (hover to see current wind gust speed)